Boyd, Iowa
Current Conditions -  °F | °C
As of 8:55 PM on Sunday 23 Nov 2014 (Local Time) from KCCY Reporting Station
Light Rain Light Rain  
Wind Chill: 30°   Ceiling: 600
Heat Index: 39°   Visibility: 2mi
Dew Point: 39°   Wind: 18mph
Humidity: 100%   Direction: 320°NW
Pressure: 29.31"   Gusts: 26mph
Location:  43.0559°N, 92.3113°W
Report Text: KCCY 240255Z AUTO 32016G23KT 2SM -RA OVC006 04/04 A2931 RMK AO2 P0001
Loading
Personal Weather Stations






























Interactive Weather Map New forecast layout! Learn more

10-Day Weather Forecast

Advertisements
Track Severe Weather on mobile